createdAt,value
2023-01-27T00:00:00.012Z,1001.94
2023-01-27T00:01:02.671Z,1001.93
2023-01-27T00:02:05.343Z,1001.99
2023-01-27T00:03:07.989Z,1001.95
2023-01-27T00:04:10.619Z,1001.92
2023-01-27T00:05:13.275Z,1001.94
2023-01-27T00:06:15.934Z,1001.89
2023-01-27T00:07:18.581Z,1001.89
2023-01-27T00:08:21.192Z,1001.95
2023-01-27T00:09:23.837Z,1001.95
2023-01-27T00:10:26.619Z,1001.9
2023-01-27T00:11:29.302Z,1001.91
2023-01-27T00:12:31.989Z,1001.92
2023-01-27T00:13:34.665Z,1001.95
2023-01-27T00:14:37.323Z,1001.95
2023-01-27T00:15:40.315Z,1001.93
2023-01-27T00:16:42.986Z,1001.85
2023-01-27T00:17:45.606Z,1001.9
2023-01-27T00:18:48.280Z,1001.86
2023-01-27T00:19:50.907Z,1001.85
2023-01-27T00:20:53.570Z,1001.92
2023-01-27T00:21:56.224Z,1001.96
2023-01-27T00:22:58.902Z,1001.97
2023-01-27T00:24:01.800Z,1001.92
2023-01-27T00:25:04.412Z,1001.93
2023-01-27T00:26:07.294Z,1001.83
2023-01-27T00:27:09.985Z,1001.89
2023-01-27T00:28:12.598Z,1001.87
2023-01-27T00:29:15.302Z,1001.86
2023-01-27T00:30:17.959Z,1001.84
2023-01-27T00:31:21.249Z,1001.85
2023-01-27T00:32:23.902Z,1001.88
2023-01-27T00:33:26.550Z,1001.82
2023-01-27T00:34:29.203Z,1001.82
2023-01-27T00:35:31.842Z,1001.81
2023-01-27T00:36:34.589Z,1001.81
2023-01-27T00:37:37.259Z,1001.89
2023-01-27T00:38:39.883Z,1001.83
2023-01-27T00:39:42.559Z,1001.8
2023-01-27T00:40:45.230Z,1001.83
2023-01-27T00:41:48.032Z,1001.84
2023-01-27T00:42:50.633Z,1001.79
2023-01-27T00:43:53.328Z,1001.79
2023-01-27T00:44:55.950Z,1001.77
2023-01-27T00:45:58.607Z,1001.89
2023-01-27T00:47:01.279Z,1001.8
2023-01-27T00:48:03.913Z,1001.83
2023-01-27T00:49:06.539Z,1001.88
2023-01-27T00:50:09.203Z,1001.86
2023-01-27T00:51:11.841Z,1001.84
2023-01-27T00:52:14.475Z,1001.76
2023-01-27T00:53:17.158Z,1001.83
2023-01-27T00:54:19.844Z,1001.8
2023-01-27T00:55:22.477Z,1001.83
2023-01-27T00:56:25.095Z,1001.71
2023-01-27T00:57:27.842Z,1001.75
2023-01-27T00:58:30.525Z,1001.72
2023-01-27T00:59:33.186Z,1001.73
2023-01-27T01:00:35.827Z,1001.77
2023-01-27T01:01:38.617Z,1001.76
2023-01-27T01:02:41.386Z,1001.74
2023-01-27T01:03:44.085Z,1001.78
2023-01-27T01:04:46.762Z,1001.78
2023-01-27T01:05:49.377Z,1001.8
2023-01-27T01:06:51.950Z,1001.82
2023-01-27T01:07:54.599Z,1001.78
2023-01-27T01:08:57.232Z,1001.79
2023-01-27T01:09:59.878Z,1001.75
2023-01-27T01:11:02.555Z,1001.8
2023-01-27T01:12:05.194Z,1001.86
2023-01-27T01:13:07.918Z,1001.84
2023-01-27T01:14:11.215Z,1001.77
2023-01-27T01:15:13.826Z,1001.8
2023-01-27T01:16:21.688Z,1001.83
2023-01-27T01:17:24.176Z,1001.78
2023-01-27T01:18:26.746Z,1001.79
2023-01-27T01:19:29.374Z,1001.75
2023-01-27T01:20:31.974Z,1001.81
2023-01-27T01:21:34.630Z,1001.81
2023-01-27T01:22:37.256Z,1001.82
2023-01-27T01:23:39.967Z,1001.84
2023-01-27T01:24:42.619Z,1001.86
2023-01-27T01:25:45.315Z,1001.85
2023-01-27T01:26:47.907Z,1001.81
2023-01-27T01:27:50.534Z,1001.84
2023-01-27T01:28:53.308Z,1001.8
2023-01-27T01:29:55.927Z,1001.79
2023-01-27T01:30:59.051Z,1001.78
2023-01-27T01:32:01.735Z,1001.81
2023-01-27T01:33:04.842Z,1001.81
2023-01-27T01:34:07.714Z,1001.78
2023-01-27T01:35:10.401Z,1001.78
2023-01-27T01:36:13.086Z,1001.73
2023-01-27T01:37:15.672Z,1001.73
2023-01-27T01:38:18.333Z,1001.78
2023-01-27T01:39:21.023Z,1001.74
2023-01-27T01:40:26.226Z,1001.72
2023-01-27T01:41:28.692Z,1001.68
2023-01-27T01:42:31.323Z,1001.63
2023-01-27T01:43:33.990Z,1001.63
2023-01-27T01:44:36.743Z,1001.6
2023-01-27T01:45:39.439Z,1001.56
2023-01-27T01:46:42.356Z,1001.58
2023-01-27T01:47:44.980Z,1001.55
2023-01-27T01:48:47.738Z,1001.59
2023-01-27T01:49:50.365Z,1001.55
2023-01-27T01:50:53.065Z,1001.5
2023-01-27T01:51:55.761Z,1001.51
2023-01-27T01:52:58.585Z,1001.45
2023-01-27T01:54:01.203Z,1001.51
2023-01-27T01:55:03.909Z,1001.48
2023-01-27T01:56:06.544Z,1001.46
2023-01-27T01:57:09.152Z,1001.5
2023-01-27T01:58:11.814Z,1001.48
2023-01-27T01:59:14.509Z,1001.42
2023-01-27T02:00:17.313Z,1001.41
2023-01-27T02:01:20.203Z,1001.49
2023-01-27T02:02:27.165Z,1001.44
2023-01-27T02:03:29.560Z,1001.41
2023-01-27T02:04:32.206Z,1001.43
2023-01-27T02:05:34.933Z,1001.39
2023-01-27T02:06:37.625Z,1001.32
2023-01-27T02:07:40.253Z,1001.38
2023-01-27T02:08:42.918Z,1001.32
2023-01-27T02:09:45.520Z,1001.33
2023-01-27T02:10:48.159Z,1001.37
2023-01-27T02:11:50.856Z,1001.29
2023-01-27T02:12:53.501Z,1001.32
2023-01-27T02:13:56.223Z,1001.26
2023-01-27T02:14:58.824Z,1001.29
2023-01-27T02:16:01.575Z,1001.28
2023-01-27T02:17:04.255Z,1001.34
2023-01-27T02:18:06.904Z,1001.29
2023-01-27T02:19:09.581Z,1001.29
2023-01-27T02:20:12.579Z,1001.29
2023-01-27T02:21:15.199Z,1001.33
2023-01-27T02:22:17.911Z,1001.29
2023-01-27T02:23:20.547Z,1001.34
2023-01-27T02:24:23.401Z,1001.3
2023-01-27T02:25:26.018Z,1001.31
2023-01-27T02:26:28.679Z,1001.24
2023-01-27T02:27:31.359Z,1001.22
2023-01-27T02:28:34.019Z,1001.21
2023-01-27T02:29:36.690Z,1001.31
2023-01-27T02:30:39.608Z,1001.3
2023-01-27T02:31:43.088Z,1001.28
2023-01-27T02:32:45.729Z,1001.29
2023-01-27T02:33:48.397Z,1001.39
2023-01-27T02:34:51.102Z,1001.34
2023-01-27T02:35:53.815Z,1001.4
2023-01-27T02:36:56.444Z,1001.34
2023-01-27T02:37:59.073Z,1001.35
2023-01-27T02:39:01.717Z,1001.35
2023-01-27T02:40:04.673Z,1001.41
2023-01-27T02:41:07.300Z,1001.41
2023-01-27T02:42:09.974Z,1001.46
2023-01-27T02:43:12.605Z,1001.51
2023-01-27T02:44:15.275Z,1001.48
2023-01-27T02:45:18.021Z,1001.47
2023-01-27T02:46:20.912Z,1001.47
2023-01-27T02:47:23.818Z,1001.51
2023-01-27T02:48:26.450Z,1001.48
2023-01-27T02:49:29.084Z,1001.36
2023-01-27T02:50:31.772Z,1001.46
2023-01-27T02:51:34.403Z,1001.47
2023-01-27T02:52:37.013Z,1001.41
2023-01-27T02:53:39.670Z,1001.4
2023-01-27T02:54:42.403Z,1001.45
2023-01-27T02:55:45.069Z,1001.43
2023-01-27T02:56:47.761Z,1001.44
2023-01-27T02:57:50.537Z,1001.41
2023-01-27T02:58:53.178Z,1001.31
2023-01-27T02:59:55.844Z,1001.4
2023-01-27T03:00:58.505Z,1001.26
2023-01-27T03:02:01.211Z,1001.27
2023-01-27T03:03:03.875Z,1001.27
2023-01-27T03:04:06.514Z,1001.28
2023-01-27T03:05:09.154Z,1001.3
2023-01-27T03:06:11.805Z,1001.31
2023-01-27T03:07:14.488Z,1001.31
2023-01-27T03:08:17.098Z,1001.27
2023-01-27T03:09:19.864Z,1001.29
2023-01-27T03:10:22.505Z,1001.29
2023-01-27T03:11:25.332Z,1001.24
2023-01-27T03:12:28.181Z,1001.31
2023-01-27T03:13:30.915Z,1001.28
2023-01-27T03:14:33.548Z,1001.32
2023-01-27T03:15:36.434Z,1001.32
2023-01-27T03:16:39.083Z,1001.32
2023-01-27T03:17:41.706Z,1001.31
2023-01-27T03:18:44.454Z,1001.33
2023-01-27T03:19:47.123Z,1001.31
2023-01-27T03:20:49.923Z,1001.29
2023-01-27T03:21:52.564Z,1001.34
2023-01-27T03:22:55.216Z,1001.29
2023-01-27T03:23:58.046Z,1001.3
2023-01-27T03:25:00.687Z,1001.24
2023-01-27T03:26:03.280Z,1001.29
2023-01-27T03:27:05.983Z,1001.23
2023-01-27T03:28:08.846Z,1001.34
2023-01-27T03:29:11.450Z,1001.35
2023-01-27T03:30:14.146Z,1001.34
2023-01-27T03:31:17.448Z,1001.32
2023-01-27T03:32:20.193Z,1001.43
2023-01-27T03:33:22.792Z,1001.43
2023-01-27T03:34:25.517Z,1001.41
2023-01-27T03:35:28.166Z,1001.4
2023-01-27T03:36:30.810Z,1001.36
2023-01-27T03:37:33.670Z,1001.34
2023-01-27T03:38:36.246Z,1001.42
2023-01-27T03:39:48.863Z,1001.38
2023-01-27T03:40:51.121Z,1001.35
2023-01-27T03:41:53.759Z,1001.32
2023-01-27T03:42:56.357Z,1001.35
2023-01-27T03:43:59.022Z,1001.36
2023-01-27T03:45:01.778Z,1001.38
2023-01-27T03:46:04.849Z,1001.44
2023-01-27T03:47:07.468Z,1001.42
2023-01-27T03:48:10.111Z,1001.47
2023-01-27T03:49:12.774Z,1001.45
2023-01-27T03:50:15.494Z,1001.44
2023-01-27T03:51:18.114Z,1001.46
2023-01-27T03:52:20.742Z,1001.47
2023-01-27T03:53:23.581Z,1001.44
2023-01-27T03:54:26.259Z,1001.44
2023-01-27T03:55:28.944Z,1001.39
2023-01-27T03:56:31.592Z,1001.47
2023-01-27T03:57:34.286Z,1001.43
2023-01-27T03:58:36.993Z,1001.44
2023-01-27T03:59:39.597Z,1001.47
2023-01-27T04:00:42.281Z,1001.41
2023-01-27T04:01:45.462Z,1001.47
2023-01-27T04:02:48.305Z,1001.44
2023-01-27T04:03:50.986Z,1001.56
2023-01-27T04:04:53.678Z,1001.47
2023-01-27T04:05:56.462Z,1001.47
2023-01-27T04:06:59.159Z,1001.43
2023-01-27T04:08:01.818Z,1001.47
2023-01-27T04:09:04.595Z,1001.47
2023-01-27T04:10:07.271Z,1001.45
2023-01-27T04:11:09.907Z,1001.5
2023-01-27T04:12:12.523Z,1001.48
2023-01-27T04:13:15.138Z,1001.5
2023-01-27T04:14:17.824Z,1001.49
2023-01-27T04:15:20.480Z,1001.47
2023-01-27T04:16:23.126Z,1001.46
2023-01-27T04:17:25.800Z,1001.56
2023-01-27T04:18:28.465Z,1001.52
2023-01-27T04:19:31.219Z,1001.54
2023-01-27T04:20:33.818Z,1001.58
2023-01-27T04:21:36.573Z,1001.62
2023-01-27T04:22:39.214Z,1001.6
2023-01-27T04:23:41.888Z,1001.61
2023-01-27T04:24:44.626Z,1001.62
2023-01-27T04:25:47.256Z,1001.6
2023-01-27T04:26:49.926Z,1001.55
2023-01-27T04:27:52.600Z,1001.59
2023-01-27T04:28:55.304Z,1001.53
2023-01-27T04:29:57.866Z,1001.51
2023-01-27T04:31:00.784Z,1001.59
2023-01-27T04:32:03.506Z,1001.6
2023-01-27T04:33:06.919Z,1001.6
2023-01-27T04:34:10.372Z,1001.55
2023-01-27T04:35:14.602Z,1001.58
2023-01-27T04:36:17.303Z,1001.58
2023-01-27T04:37:20.068Z,1001.63
2023-01-27T04:38:22.740Z,1001.56
2023-01-27T04:39:25.388Z,1001.55
2023-01-27T04:40:28.043Z,1001.61
2023-01-27T04:41:30.667Z,1001.57
2023-01-27T04:42:33.308Z,1001.57
2023-01-27T04:43:35.940Z,1001.55
2023-01-27T04:44:38.624Z,1001.61
2023-01-27T04:45:41.443Z,1001.61
2023-01-27T04:46:44.125Z,1001.59
2023-01-27T04:47:46.996Z,1001.59
2023-01-27T04:48:49.715Z,1001.59
2023-01-27T04:49:52.971Z,1001.65
2023-01-27T04:50:55.586Z,1001.6
2023-01-27T04:51:58.573Z,1001.67
2023-01-27T04:53:01.405Z,1001.63
2023-01-27T04:54:04.145Z,1001.67
2023-01-27T04:55:06.783Z,1001.67
2023-01-27T04:56:10.018Z,1001.68
2023-01-27T04:57:12.682Z,1001.72
2023-01-27T04:58:15.300Z,1001.67
2023-01-27T04:59:17.975Z,1001.71
2023-01-27T05:00:20.795Z,1001.64
2023-01-27T05:01:23.480Z,1001.65
2023-01-27T05:02:26.084Z,1001.7
2023-01-27T05:03:28.719Z,1001.72
2023-01-27T05:04:31.401Z,1001.67
2023-01-27T05:05:34.175Z,1001.68
2023-01-27T05:06:36.795Z,1001.67
2023-01-27T05:07:39.463Z,1001.62
2023-01-27T05:08:42.243Z,1001.64
2023-01-27T05:09:44.917Z,1001.57
2023-01-27T05:10:47.663Z,1001.62
2023-01-27T05:11:50.309Z,1001.64
2023-01-27T05:12:52.935Z,1001.64
2023-01-27T05:13:55.646Z,1001.6
2023-01-27T05:14:59.123Z,1001.65
2023-01-27T05:16:02.000Z,1001.69
2023-01-27T05:17:04.891Z,1001.71
2023-01-27T05:18:10.529Z,1001.69
2023-01-27T05:19:12.917Z,1001.67
2023-01-27T05:20:15.583Z,1001.65
2023-01-27T05:21:18.715Z,1001.68
2023-01-27T05:22:21.833Z,1001.63
2023-01-27T05:23:24.654Z,1001.66
2023-01-27T05:24:27.714Z,1001.63
2023-01-27T05:25:30.569Z,1001.7
2023-01-27T05:26:33.266Z,1001.67
2023-01-27T05:27:36.163Z,1001.68
2023-01-27T05:28:38.839Z,1001.71
2023-01-27T05:29:41.514Z,1001.66
2023-01-27T05:30:44.305Z,1001.65
2023-01-27T05:31:47.370Z,1001.64
2023-01-27T05:32:49.940Z,1001.63
2023-01-27T05:33:52.615Z,1001.64
2023-01-27T05:34:55.227Z,1001.69
2023-01-27T05:35:57.892Z,1001.66
2023-01-27T05:37:00.569Z,1001.69
2023-01-27T05:38:03.574Z,1001.7
2023-01-27T05:39:09.404Z,1001.7
2023-01-27T05:40:11.851Z,1001.68
2023-01-27T05:41:14.455Z,1001.71
2023-01-27T05:42:17.072Z,1001.68
2023-01-27T05:43:19.721Z,1001.7
2023-01-27T05:44:22.379Z,1001.75
2023-01-27T05:45:25.018Z,1001.72
2023-01-27T05:46:27.967Z,1001.67
2023-01-27T05:47:30.618Z,1001.73
2023-01-27T05:48:33.357Z,1001.72
2023-01-27T05:49:36.046Z,1001.69
2023-01-27T05:50:38.680Z,1001.7
2023-01-27T05:51:41.330Z,1001.73
2023-01-27T05:52:44.005Z,1001.77
2023-01-27T05:53:46.651Z,1001.79
2023-01-27T05:54:49.343Z,1001.86
2023-01-27T05:55:52.088Z,1001.86
2023-01-27T05:56:56.881Z,1001.85
2023-01-27T05:57:59.372Z,1001.84
2023-01-27T05:59:01.986Z,1001.88
2023-01-27T06:00:04.645Z,1001.88
2023-01-27T06:01:07.288Z,1001.9
2023-01-27T06:02:10.308Z,1001.89
2023-01-27T06:03:13.183Z,1001.87
2023-01-27T06:04:15.885Z,1001.97
2023-01-27T06:05:18.492Z,1001.95
2023-01-27T06:06:21.478Z,1001.99
2023-01-27T06:07:24.452Z,1001.95
2023-01-27T06:08:27.344Z,1001.95
2023-01-27T06:09:29.979Z,1002
2023-01-27T06:10:32.857Z,1001.92
2023-01-27T06:11:35.615Z,1001.93
2023-01-27T06:12:38.250Z,1001.93
2023-01-27T06:13:41.853Z,1001.92
2023-01-27T06:14:44.403Z,1001.94
2023-01-27T06:15:47.041Z,1001.92
2023-01-27T06:16:50.203Z,1001.9
2023-01-27T06:17:53.218Z,1001.89
2023-01-27T06:18:55.823Z,1001.84
2023-01-27T06:19:58.463Z,1001.8
2023-01-27T06:21:01.733Z,1001.87
2023-01-27T06:22:04.355Z,1001.84
2023-01-27T06:23:07.023Z,1001.93
2023-01-27T06:24:14.077Z,1001.88
2023-01-27T06:25:17.181Z,1001.93
2023-01-27T06:26:20.362Z,1001.94
2023-01-27T06:27:24.121Z,1001.84
2023-01-27T06:28:30.559Z,1001.94
2023-01-27T06:29:32.917Z,1001.91
2023-01-27T06:30:35.516Z,1001.93
2023-01-27T06:31:38.501Z,1001.94
2023-01-27T06:32:41.169Z,1001.87
2023-01-27T06:33:43.826Z,1001.84
2023-01-27T06:34:46.406Z,1001.85
2023-01-27T06:35:49.062Z,1001.84
2023-01-27T06:36:51.705Z,1001.86
2023-01-27T06:37:54.358Z,1001.93
2023-01-27T06:38:56.993Z,1001.91
2023-01-27T06:39:59.631Z,1001.94
2023-01-27T06:41:02.232Z,1001.9
2023-01-27T06:42:04.926Z,1001.88
2023-01-27T06:43:07.668Z,1001.93
2023-01-27T06:44:10.230Z,1001.94
2023-01-27T06:45:12.906Z,1002
2023-01-27T06:46:15.788Z,1002
2023-01-27T06:47:18.493Z,1002.01
2023-01-27T06:48:21.169Z,1002.03
2023-01-27T06:49:23.785Z,1002.08
2023-01-27T06:50:26.389Z,1002.06
2023-01-27T06:51:29.042Z,1002.04
2023-01-27T06:52:31.874Z,1002.13
2023-01-27T06:53:34.962Z,1002.08
2023-01-27T06:54:37.790Z,1002.19
2023-01-27T06:55:40.435Z,1002.14
2023-01-27T06:56:43.037Z,1002.18
2023-01-27T06:57:45.628Z,1002.22
2023-01-27T06:58:48.383Z,1002.22
2023-01-27T06:59:50.963Z,1002.2
2023-01-27T07:00:53.672Z,1002.22
2023-01-27T07:01:56.544Z,1002.25
2023-01-27T07:02:59.342Z,1002.31
2023-01-27T07:04:02.012Z,1002.26
2023-01-27T07:05:04.665Z,1002.26
2023-01-27T07:06:07.330Z,1002.24
2023-01-27T07:07:09.983Z,1002.25
2023-01-27T07:08:12.623Z,1002.25
2023-01-27T07:09:15.218Z,1002.24
2023-01-27T07:10:17.974Z,1002.21
2023-01-27T07:11:20.667Z,1002.24
2023-01-27T07:12:23.295Z,1002.27
2023-01-27T07:13:25.990Z,1002.23
2023-01-27T07:14:28.773Z,1002.24
2023-01-27T07:15:31.393Z,1002.22
2023-01-27T07:16:34.404Z,1002.22
2023-01-27T07:17:37.463Z,1002.17
2023-01-27T07:18:40.321Z,1002.19
2023-01-27T07:19:43.126Z,1002.21
2023-01-27T07:20:45.766Z,1002.16
2023-01-27T07:21:48.498Z,1002.15
2023-01-27T07:22:51.126Z,1002.23
2023-01-27T07:23:54.015Z,1002.26
2023-01-27T07:24:56.655Z,1002.36
2023-01-27T07:26:03.050Z,1002.47
2023-01-27T07:27:08.198Z,1002.47
2023-01-27T07:28:10.795Z,1002.53
2023-01-27T07:29:13.443Z,1002.52
2023-01-27T07:30:16.481Z,1002.53
2023-01-27T07:31:19.697Z,1002.56
2023-01-27T07:32:22.317Z,1002.5
2023-01-27T07:33:24.908Z,1002.52
2023-01-27T07:34:27.583Z,1002.49
2023-01-27T07:35:30.261Z,1002.49
2023-01-27T07:36:32.891Z,1002.46
2023-01-27T07:37:38.631Z,1002.51
2023-01-27T07:38:40.961Z,1002.52
2023-01-27T07:39:43.709Z,1002.55
2023-01-27T07:40:46.380Z,1002.53
2023-01-27T07:41:48.979Z,1002.55
2023-01-27T07:42:51.986Z,1002.57
2023-01-27T07:43:54.788Z,1002.61
2023-01-27T07:44:57.414Z,1002.64
2023-01-27T07:46:00.345Z,1002.59
2023-01-27T07:47:03.012Z,1002.6
2023-01-27T07:48:05.700Z,1002.65
2023-01-27T07:49:08.353Z,1002.61
2023-01-27T07:50:12.574Z,1002.63
2023-01-27T07:51:15.254Z,1002.6
2023-01-27T07:52:17.922Z,1002.49
2023-01-27T07:53:20.642Z,1002.46
2023-01-27T07:54:23.283Z,1002.46
2023-01-27T07:55:25.901Z,1002.43
2023-01-27T07:56:28.572Z,1002.47
2023-01-27T07:57:32.191Z,1002.5
2023-01-27T07:58:35.229Z,1002.53
2023-01-27T07:59:37.910Z,1002.54
2023-01-27T08:00:40.774Z,1002.64
2023-01-27T08:01:43.540Z,1002.74
2023-01-27T08:02:46.206Z,1002.68
2023-01-27T08:03:48.973Z,1002.78
2023-01-27T08:04:54.199Z,1002.82
2023-01-27T08:05:56.614Z,1002.8
2023-01-27T08:06:59.211Z,1002.82
2023-01-27T08:08:01.817Z,1002.79
2023-01-27T08:09:04.494Z,1002.81
2023-01-27T08:10:07.112Z,1002.8
2023-01-27T08:11:09.723Z,1002.81
2023-01-27T08:12:12.382Z,1002.8
2023-01-27T08:13:15.222Z,1002.86
2023-01-27T08:14:17.906Z,1002.83
2023-01-27T08:15:20.553Z,1002.82
2023-01-27T08:16:23.361Z,1002.88
2023-01-27T08:17:26.148Z,1002.84
2023-01-27T08:18:28.812Z,1002.87
2023-01-27T08:19:31.490Z,1002.83
2023-01-27T08:20:34.238Z,1002.87
2023-01-27T08:21:36.940Z,1002.88
2023-01-27T08:22:39.561Z,1002.81
2023-01-27T08:23:42.218Z,1002.87
2023-01-27T08:24:44.912Z,1002.88
2023-01-27T08:25:47.563Z,1002.86
2023-01-27T08:26:50.223Z,1002.83
2023-01-27T08:27:52.902Z,1002.83
2023-01-27T08:28:55.622Z,1002.86
2023-01-27T08:29:58.325Z,1002.85
2023-01-27T08:31:01.375Z,1002.86
2023-01-27T08:32:03.992Z,1002.98
2023-01-27T08:33:06.749Z,1002.92
2023-01-27T08:34:09.405Z,1002.9
2023-01-27T08:35:12.634Z,1002.97
2023-01-27T08:36:15.307Z,1003.01
2023-01-27T08:37:17.982Z,1002.94
2023-01-27T08:38:20.635Z,1002.96
2023-01-27T08:39:23.304Z,1002.94
2023-01-27T08:40:26.124Z,1002.97
2023-01-27T08:41:28.779Z,1003.03
2023-01-27T08:42:31.426Z,1003.03
2023-01-27T08:43:34.067Z,1003.08
2023-01-27T08:44:36.677Z,1003.09
2023-01-27T08:45:39.588Z,1003.07
2023-01-27T08:46:42.195Z,1003.06
2023-01-27T08:47:44.847Z,1003.03
2023-01-27T08:48:47.579Z,1003.08
2023-01-27T08:49:50.237Z,1003.03
2023-01-27T08:50:52.893Z,1003
2023-01-27T08:51:55.513Z,1002.97
2023-01-27T08:52:58.156Z,1003.01
2023-01-27T08:54:00.817Z,1002.93
2023-01-27T08:55:03.483Z,1003.03
2023-01-27T08:56:06.124Z,1003.07
2023-01-27T08:57:08.792Z,1002.98
2023-01-27T08:58:11.414Z,1003.02
2023-01-27T08:59:14.046Z,1002.98
2023-01-27T09:00:17.500Z,1003.04
2023-01-27T09:01:21.008Z,1003.04
2023-01-27T09:02:25.168Z,1003.01
2023-01-27T09:03:27.733Z,1002.98
2023-01-27T09:04:30.905Z,1003.01
2023-01-27T09:05:33.512Z,1002.97
2023-01-27T09:06:36.176Z,1003.01
2023-01-27T09:07:38.856Z,1003.01
2023-01-27T09:08:41.507Z,1003.02
2023-01-27T09:09:44.165Z,1003.04
2023-01-27T09:10:46.816Z,1003.05
2023-01-27T09:11:49.463Z,1003
2023-01-27T09:12:52.147Z,1002.96
2023-01-27T09:13:54.794Z,1002.95
2023-01-27T09:14:57.434Z,1002.92
2023-01-27T09:16:00.293Z,1002.9
2023-01-27T09:17:02.928Z,1002.91
2023-01-27T09:18:07.185Z,1002.94
2023-01-27T09:19:09.754Z,1002.95
2023-01-27T09:20:14.588Z,1002.97
2023-01-27T09:21:17.255Z,1003.01
2023-01-27T09:22:19.897Z,1002.99
2023-01-27T09:23:22.550Z,1003.01
2023-01-27T09:24:25.419Z,1003
2023-01-27T09:25:28.112Z,1003.06
2023-01-27T09:26:30.787Z,1003.09
2023-01-27T09:27:40.529Z,1003.09
2023-01-27T09:28:42.756Z,1003.06
2023-01-27T09:29:45.348Z,1003.04
2023-01-27T09:30:48.269Z,1003
2023-01-27T09:31:51.143Z,1002.99
2023-01-27T09:32:53.792Z,1003.08
2023-01-27T09:33:56.407Z,1003.14
2023-01-27T09:34:59.043Z,1003.13
2023-01-27T09:36:01.950Z,1003.1
2023-01-27T09:37:04.577Z,1003.17
2023-01-27T09:38:07.256Z,1003.12
2023-01-27T09:39:09.920Z,1003.18
2023-01-27T09:40:12.573Z,1003.12
2023-01-27T09:41:15.258Z,1003.18
2023-01-27T09:42:17.909Z,1003.22
2023-01-27T09:43:20.558Z,1003.11
2023-01-27T09:44:23.201Z,1003.23
2023-01-27T09:45:25.905Z,1003.2
2023-01-27T09:46:28.975Z,1003.21
2023-01-27T09:47:31.625Z,1003.18
2023-01-27T09:48:34.247Z,1003.19
2023-01-27T09:49:36.908Z,1003.14
2023-01-27T09:50:39.545Z,1003.17
2023-01-27T09:51:42.325Z,1003.19
2023-01-27T09:52:48.589Z,1003.27
2023-01-27T09:53:50.969Z,1003.28
2023-01-27T09:54:54.199Z,1003.32
2023-01-27T09:55:56.844Z,1003.32
2023-01-27T09:56:59.540Z,1003.35
2023-01-27T09:58:02.216Z,1003.25
2023-01-27T09:59:04.860Z,1003.29
2023-01-27T10:00:07.537Z,1003.35
2023-01-27T10:01:10.378Z,1003.28
2023-01-27T10:02:13.100Z,1003.2
2023-01-27T10:03:15.759Z,1003.22
2023-01-27T10:04:18.616Z,1003.28
2023-01-27T10:05:21.249Z,1003.22
2023-01-27T10:06:24.190Z,1003.25
2023-01-27T10:07:26.987Z,1003.21
2023-01-27T10:08:29.634Z,1003.23
2023-01-27T10:09:32.500Z,1003.23
2023-01-27T10:10:35.149Z,1003.17
2023-01-27T10:11:37.806Z,1003.22
2023-01-27T10:12:40.475Z,1003.27
2023-01-27T10:13:43.153Z,1003.23
2023-01-27T10:14:45.843Z,1003.24
2023-01-27T10:15:48.508Z,1003.23
2023-01-27T10:16:51.167Z,1003.21
2023-01-27T10:17:53.795Z,1003.27
2023-01-27T10:18:56.489Z,1003.23
2023-01-27T10:19:59.139Z,1003.27
2023-01-27T10:21:02.622Z,1003.26
2023-01-27T10:22:05.272Z,1003.31
2023-01-27T10:23:08.007Z,1003.23
2023-01-27T10:24:10.782Z,1003.22
2023-01-27T10:25:13.398Z,1003.24
2023-01-27T10:26:16.071Z,1003.19
2023-01-27T10:27:18.701Z,1003.23
2023-01-27T10:28:21.376Z,1003.28
2023-01-27T10:29:24.037Z,1003.17
2023-01-27T10:30:26.722Z,1003.15
2023-01-27T10:31:29.632Z,1003.14
2023-01-27T10:32:32.295Z,1003.07
2023-01-27T10:33:34.957Z,1003.02
2023-01-27T10:34:37.621Z,1003.03
2023-01-27T10:35:40.256Z,1003.05
2023-01-27T10:36:42.900Z,1003.04
2023-01-27T10:37:46.142Z,1003.07
2023-01-27T10:38:48.986Z,1003.04
2023-01-27T10:39:51.603Z,1003.09
2023-01-27T10:40:54.260Z,1003.04
2023-01-27T10:41:56.947Z,1003.05
2023-01-27T10:42:59.629Z,1003.01
2023-01-27T10:44:02.294Z,1003.06
2023-01-27T10:45:04.894Z,1003.01
2023-01-27T10:46:07.754Z,1002.95
2023-01-27T10:47:10.425Z,1003.06
2023-01-27T10:48:13.083Z,1003
2023-01-27T10:49:15.733Z,1003.11
2023-01-27T10:50:18.428Z,1003.12
2023-01-27T10:51:21.076Z,1003.13
2023-01-27T10:52:23.693Z,1003.18
2023-01-27T10:53:26.275Z,1003.18
2023-01-27T10:54:29.110Z,1003.14
2023-01-27T10:55:31.746Z,1003.15
2023-01-27T10:56:34.394Z,1003.15
2023-01-27T10:57:37.067Z,1003.12
2023-01-27T10:58:39.688Z,1003.11
2023-01-27T10:59:42.375Z,1003.07
2023-01-27T11:01:26.928Z,1003.07
2023-01-27T11:02:07.317Z,1003.01
2023-01-27T11:03:09.956Z,1003.02
2023-01-27T11:04:13.673Z,1002.99
2023-01-27T11:05:16.243Z,1003.01
2023-01-27T11:06:18.870Z,1002.99
2023-01-27T11:07:21.577Z,1002.9
2023-01-27T11:08:24.215Z,1002.93
2023-01-27T11:09:26.921Z,1002.9
2023-01-27T11:10:29.754Z,1002.85
2023-01-27T11:11:32.363Z,1002.87
2023-01-27T11:12:34.985Z,1002.9
2023-01-27T11:13:37.658Z,1002.84
2023-01-27T11:14:40.288Z,1002.85
2023-01-27T11:15:42.910Z,1002.82
2023-01-27T11:16:45.947Z,1002.87
2023-01-27T11:17:48.662Z,1002.86
2023-01-27T11:18:51.289Z,1002.95
2023-01-27T11:19:53.918Z,1002.94
2023-01-27T11:20:56.537Z,1002.89
2023-01-27T11:22:09.423Z,1002.88
2023-01-27T11:23:11.644Z,1002.95
2023-01-27T11:24:14.448Z,1002.97
2023-01-27T11:25:17.081Z,1002.93
2023-01-27T11:26:23.955Z,1002.97
2023-01-27T11:27:26.296Z,1003.02
2023-01-27T11:28:28.958Z,1002.98
2023-01-27T11:29:31.565Z,1003.03
2023-01-27T11:30:34.615Z,1003.01
2023-01-27T11:31:38.708Z,1002.98
2023-01-27T11:32:41.293Z,1003.05
2023-01-27T11:33:43.947Z,1002.96
2023-01-27T11:34:46.610Z,1002.96
2023-01-27T11:35:49.227Z,1002.93
2023-01-27T11:36:51.900Z,1002.92
2023-01-27T11:38:15.200Z,1002.9
2023-01-27T11:39:16.398Z,1002.89
2023-01-27T11:40:19.063Z,1002.91
2023-01-27T11:41:21.689Z,1002.96
2023-01-27T11:42:24.500Z,1002.93
2023-01-27T11:43:27.125Z,1002.99
2023-01-27T11:44:29.817Z,1002.98
2023-01-27T11:45:32.617Z,1002.96
2023-01-27T11:46:35.491Z,1002.91
2023-01-27T11:47:38.119Z,1002.94
2023-01-27T11:48:40.984Z,1002.93
2023-01-27T11:49:43.601Z,1002.9
2023-01-27T11:50:46.282Z,1002.9
2023-01-27T11:51:48.901Z,1002.88
2023-01-27T11:53:01.570Z,1002.8
2023-01-27T11:54:03.777Z,1002.78
2023-01-27T11:55:06.437Z,1002.77
2023-01-27T11:56:09.108Z,1002.77
2023-01-27T11:57:11.813Z,1002.74
2023-01-27T11:58:14.569Z,1002.77
2023-01-27T11:59:17.200Z,1002.71
2023-01-27T12:00:19.874Z,1002.75
2023-01-27T12:01:22.512Z,1002.73
2023-01-27T12:02:25.191Z,1002.69
2023-01-27T12:03:28.092Z,1002.76
2023-01-27T12:04:30.942Z,1002.75
2023-01-27T12:05:33.575Z,1002.8
2023-01-27T12:06:36.290Z,1002.8
2023-01-27T12:07:39.565Z,1002.78
2023-01-27T12:08:42.222Z,1002.74
2023-01-27T12:09:44.852Z,1002.74
2023-01-27T12:10:47.696Z,1002.77
2023-01-27T12:11:50.333Z,1002.73
2023-01-27T12:12:53.026Z,1002.74
2023-01-27T12:13:55.797Z,1002.74
2023-01-27T12:14:58.456Z,1002.69
2023-01-27T12:16:01.277Z,1002.68
2023-01-27T12:17:03.957Z,1002.66
2023-01-27T12:18:06.569Z,1002.66
2023-01-27T12:19:09.208Z,1002.69
2023-01-27T12:20:13.670Z,1002.67
2023-01-27T12:21:17.286Z,1002.64
2023-01-27T12:22:19.898Z,1002.63
2023-01-27T12:23:22.579Z,1002.62
2023-01-27T12:24:25.435Z,1002.65
2023-01-27T12:25:28.216Z,1002.6
2023-01-27T12:26:30.832Z,1002.63
2023-01-27T12:27:33.472Z,1002.65
2023-01-27T12:28:36.149Z,1002.64
2023-01-27T12:29:38.866Z,1002.6
2023-01-27T12:30:41.527Z,1002.5
2023-01-27T12:31:44.339Z,1002.51
2023-01-27T12:32:47.018Z,1002.51
2023-01-27T12:33:49.661Z,1002.49
2023-01-27T12:34:52.324Z,1002.52
2023-01-27T12:35:54.965Z,1002.48
2023-01-27T12:36:57.638Z,1002.42
2023-01-27T12:38:00.332Z,1002.43
2023-01-27T12:39:03.005Z,1002.49
2023-01-27T12:40:05.638Z,1002.46
2023-01-27T12:41:08.318Z,1002.51
2023-01-27T12:42:10.937Z,1002.46
2023-01-27T12:43:13.661Z,1002.49